createdAt,value
2022-10-02T00:00:42.650Z,73.00
2022-10-02T00:03:32.973Z,73.25
2022-10-02T00:06:07.148Z,73.14
2022-10-02T00:08:38.459Z,73.30
2022-10-02T00:11:13.731Z,73.30
2022-10-02T00:13:47.988Z,73.45
2022-10-02T00:16:33.161Z,73.32
2022-10-02T00:19:02.288Z,73.43
2022-10-02T00:22:06.920Z,73.36
2022-10-02T00:24:40.334Z,73.32
2022-10-02T00:27:37.529Z,73.33
2022-10-02T00:30:06.368Z,73.35
2022-10-02T00:32:43.880Z,73.30
2022-10-02T00:35:22.512Z,73.56
2022-10-02T00:38:10.943Z,73.44
2022-10-02T00:41:12.383Z,73.41
2022-10-02T00:44:07.844Z,73.28
2022-10-02T00:46:46.975Z,73.28
2022-10-02T00:49:25.896Z,73.25
2022-10-02T00:52:05.877Z,73.15
2022-10-02T00:55:11.817Z,73.09
2022-10-02T00:57:51.009Z,73.23
2022-10-02T01:00:26.840Z,73.05
2022-10-02T01:03:22.491Z,73.05
2022-10-02T01:05:52.397Z,73.01
2022-10-02T01:08:20.312Z,73.12
2022-10-02T01:10:49.607Z,73.12
2022-10-02T01:13:17.470Z,72.96
2022-10-02T01:15:51.586Z,73.16
2022-10-02T01:18:19.671Z,73.14
2022-10-02T01:20:50.657Z,72.95
2022-10-02T01:23:32.403Z,72.83
2022-10-02T01:26:00.547Z,72.94
2022-10-02T01:28:29.208Z,72.90
2022-10-02T01:31:05.323Z,72.76
2022-10-02T01:33:35.081Z,72.61
2022-10-02T01:36:03.051Z,72.60
2022-10-02T01:38:31.596Z,72.55
2022-10-02T01:41:00.274Z,72.66
2022-10-02T01:43:40.782Z,72.72
2022-10-02T01:46:50.587Z,72.65
2022-10-02T01:49:32.017Z,72.75
2022-10-02T01:52:21.160Z,72.88
2022-10-02T01:55:08.264Z,72.91
2022-10-02T01:58:00.548Z,73.01
2022-10-02T02:00:50.308Z,73.08
2022-10-02T02:03:39.346Z,73.00
2022-10-02T02:06:26.761Z,73.01
2022-10-02T02:09:12.864Z,73.04
2022-10-02T02:11:47.994Z,73.13
2022-10-02T02:14:18.130Z,73.15
2022-10-02T02:16:56.549Z,73.45
2022-10-02T02:19:24.380Z,73.41
2022-10-02T02:22:08.056Z,73.31
2022-10-02T02:25:04.082Z,73.24
2022-10-02T02:27:36.761Z,73.20
2022-10-02T02:30:07.889Z,73.28
2022-10-02T02:32:39.677Z,73.20
2022-10-02T02:35:15.865Z,73.15
2022-10-02T02:37:45.284Z,72.83
2022-10-02T02:40:17.295Z,72.81
2022-10-02T02:42:55.721Z,72.95
2022-10-02T02:45:27.522Z,72.88
2022-10-02T02:47:58.955Z,72.90
2022-10-02T02:50:28.176Z,72.88
2022-10-02T02:52:59.815Z,72.83
2022-10-02T02:55:53.780Z,72.81
2022-10-02T02:58:51.558Z,73.00
2022-10-02T03:01:19.517Z,72.75
2022-10-02T03:03:48.076Z,72.69
2022-10-02T03:06:16.254Z,72.47
2022-10-02T03:08:45.340Z,72.79
2022-10-02T03:11:27.406Z,72.66
2022-10-02T03:14:20.027Z,72.83
2022-10-02T03:16:56.169Z,73.01
2022-10-02T03:19:47.326Z,73.19
2022-10-02T03:22:41.680Z,73.43
2022-10-02T03:25:22.144Z,73.65
2022-10-02T03:27:53.413Z,73.92
2022-10-02T03:30:24.275Z,73.90
2022-10-02T03:32:53.745Z,74.01
2022-10-02T03:35:25.552Z,73.98
2022-10-02T03:38:00.225Z,73.97
2022-10-02T03:40:28.587Z,74.00
2022-10-02T03:42:59.202Z,74.06
2022-10-02T03:45:49.848Z,74.17
2022-10-02T03:48:18.672Z,74.05
2022-10-02T03:50:50.900Z,73.90
2022-10-02T03:53:25.596Z,73.86
2022-10-02T03:56:10.344Z,73.83
2022-10-02T03:58:43.548Z,73.73
2022-10-02T04:01:27.456Z,73.88
2022-10-02T04:04:01.903Z,73.70
2022-10-02T04:06:46.305Z,73.66
2022-10-02T04:09:22.682Z,73.63
2022-10-02T04:11:57.761Z,73.62
2022-10-02T04:14:58.387Z,73.43
2022-10-02T04:17:44.949Z,73.36
2022-10-02T04:20:26.364Z,73.31
2022-10-02T04:23:02.831Z,73.14
2022-10-02T04:25:35.869Z,73.17
2022-10-02T04:28:07.132Z,73.06
2022-10-02T04:30:35.269Z,73.01
2022-10-02T04:33:13.731Z,73.11
2022-10-02T04:36:02.266Z,73.18
2022-10-02T04:38:42.558Z,73.09
2022-10-02T04:41:19.454Z,72.92
2022-10-02T04:44:07.274Z,72.76
2022-10-02T04:46:50.064Z,72.69
2022-10-02T04:49:27.165Z,72.62
2022-10-02T04:52:21.308Z,72.73
2022-10-02T04:55:16.567Z,72.74
2022-10-02T04:58:06.668Z,72.81
2022-10-02T05:00:48.311Z,72.90
2022-10-02T05:03:55.683Z,73.08
2022-10-02T05:06:48.291Z,73.03
2022-10-02T05:09:24.810Z,73.23
2022-10-02T05:12:08.950Z,73.34
2022-10-02T05:15:04.941Z,73.31
2022-10-02T05:18:05.830Z,73.82
2022-10-02T05:20:44.182Z,73.71
2022-10-02T05:23:41.977Z,73.61
2022-10-02T05:26:25.812Z,73.50
2022-10-02T05:29:21.307Z,73.32
2022-10-02T05:32:17.313Z,73.17
2022-10-02T05:35:03.480Z,72.99
2022-10-02T05:38:04.132Z,72.92
2022-10-02T05:40:34.971Z,72.90
2022-10-02T05:43:13.458Z,73.02
2022-10-02T05:45:52.448Z,72.99
2022-10-02T05:48:54.508Z,72.92
2022-10-02T05:51:31.829Z,72.74
2022-10-02T05:54:05.029Z,72.77
2022-10-02T05:57:11.979Z,72.55
2022-10-02T05:59:52.218Z,72.37
2022-10-02T06:02:38.995Z,72.35
2022-10-02T06:05:41.735Z,72.34
2022-10-02T06:08:14.807Z,72.16
2022-10-02T06:10:51.884Z,71.95
2022-10-02T06:13:25.872Z,71.81
2022-10-02T06:16:09.400Z,71.83
2022-10-02T06:21:57.102Z,71.81
2022-10-02T06:24:40.178Z,71.53
2022-10-02T06:27:20.034Z,71.27
2022-10-02T06:30:05.561Z,71.39
2022-10-02T06:32:39.213Z,70.75
2022-10-02T06:35:13.089Z,70.67
2022-10-02T06:37:53.216Z,70.34
2022-10-02T06:40:51.514Z,69.98
2022-10-02T06:43:27.262Z,70.10
2022-10-02T06:46:40.114Z,69.11
2022-10-02T06:49:30.415Z,69.00
2022-10-02T06:52:01.850Z,68.59
2022-10-02T06:54:49.220Z,68.19
2022-10-02T06:57:35.324Z,67.81
2022-10-02T07:00:04.430Z,67.66
2022-10-02T07:02:51.660Z,67.48
2022-10-02T07:05:38.588Z,67.31
2022-10-02T07:08:22.371Z,66.91
2022-10-02T07:11:05.570Z,66.93
2022-10-02T07:14:01.486Z,67.19
2022-10-02T07:16:42.733Z,67.01
2022-10-02T07:19:45.258Z,67.26
2022-10-02T07:22:43.302Z,67.42
2022-10-02T07:25:29.451Z,68.00
2022-10-02T07:28:13.892Z,68.34
2022-10-02T07:31:11.236Z,68.33
2022-10-02T07:33:53.857Z,68.13
2022-10-02T07:39:35.643Z,67.98
2022-10-02T07:42:10.188Z,67.75
2022-10-02T07:45:06.096Z,67.40
2022-10-02T07:47:52.655Z,66.78
2022-10-02T07:50:32.966Z,66.66
2022-10-02T07:53:39.171Z,66.27
2022-10-02T07:56:10.258Z,66.36
2022-10-02T07:58:45.272Z,66.20
2022-10-02T08:01:18.381Z,66.06
2022-10-02T08:04:26.077Z,65.60
2022-10-02T08:07:03.279Z,65.88
2022-10-02T08:09:36.875Z,65.50
2022-10-02T08:12:30.043Z,65.73
2022-10-02T08:14:59.020Z,65.50
2022-10-02T08:17:38.283Z,65.30
2022-10-02T08:20:18.478Z,65.41
2022-10-02T08:22:50.714Z,64.82
2022-10-02T08:25:34.432Z,62.67
2022-10-02T08:28:06.418Z,61.98
2022-10-02T08:30:34.291Z,61.73
2022-10-02T08:33:03.615Z,61.41
2022-10-02T08:35:48.603Z,61.56
2022-10-02T08:38:35.573Z,61.13
2022-10-02T08:41:30.751Z,60.42
2022-10-02T08:43:59.694Z,60.96
2022-10-02T08:46:58.748Z,60.23
2022-10-02T08:49:58.756Z,59.46
2022-10-02T08:52:53.128Z,59.31
2022-10-02T08:55:35.833Z,58.71
2022-10-02T08:58:19.705Z,57.74
2022-10-02T09:01:28.072Z,57.04
2022-10-02T09:04:16.948Z,55.99
2022-10-02T09:07:33.519Z,55.55
2022-10-02T09:10:32.670Z,55.18
2022-10-02T09:13:12.928Z,54.11
2022-10-02T09:15:47.024Z,54.06
2022-10-02T09:18:53.517Z,53.43
2022-10-02T09:21:27.200Z,52.65
2022-10-02T09:24:19.372Z,52.88
2022-10-02T09:27:29.617Z,53.19
2022-10-02T09:30:33.623Z,53.77
2022-10-02T09:33:34.099Z,53.02
2022-10-02T09:36:25.169Z,53.38
2022-10-02T09:39:11.864Z,53.53
2022-10-02T09:41:50.168Z,53.82
2022-10-02T09:44:22.595Z,54.50
2022-10-02T09:46:53.591Z,53.80
2022-10-02T09:50:02.766Z,53.10
2022-10-02T09:52:44.749Z,52.49
2022-10-02T09:55:45.489Z,51.25
2022-10-02T09:58:47.012Z,51.21
2022-10-02T10:02:07.381Z,50.88
2022-10-02T10:05:10.189Z,50.61
2022-10-02T10:08:03.862Z,50.55
2022-10-02T10:10:53.542Z,50.20
2022-10-02T10:14:00.436Z,49.23
2022-10-02T10:16:46.777Z,49.03
2022-10-02T10:19:46.988Z,47.27
2022-10-02T10:23:05.919Z,46.44
2022-10-02T10:25:55.126Z,46.48
2022-10-02T10:28:49.038Z,45.99
2022-10-02T10:31:17.513Z,45.59
2022-10-02T10:34:03.055Z,45.38
2022-10-02T10:37:15.614Z,44.80
2022-10-02T10:40:17.379Z,44.78
2022-10-02T10:43:14.279Z,44.52
2022-10-02T10:46:04.188Z,44.59
2022-10-02T10:48:56.294Z,44.78
2022-10-02T10:52:05.499Z,44.35
2022-10-02T10:54:56.127Z,44.02
2022-10-02T10:57:55.176Z,44.05
2022-10-02T11:00:31.912Z,44.58
2022-10-02T11:03:14.269Z,44.39
2022-10-02T11:06:04.899Z,43.99
2022-10-02T11:09:07.229Z,44.61
2022-10-02T11:12:00.070Z,45.72
2022-10-02T11:15:31.647Z,47.18
2022-10-02T11:20:14.815Z,47.54
2022-10-02T11:23:26.868Z,47.82
2022-10-02T11:26:37.876Z,48.96
2022-10-02T11:29:36.397Z,49.31
2022-10-02T11:32:28.178Z,49.06
2022-10-02T11:35:03.452Z,48.98
2022-10-02T11:37:41.637Z,48.52
2022-10-02T11:40:46.585Z,48.51
2022-10-02T11:43:32.241Z,49.56
2022-10-02T11:46:29.324Z,50.49
2022-10-02T11:49:39.476Z,49.86
2022-10-02T11:52:38.165Z,50.48
2022-10-02T11:55:36.456Z,48.29
2022-10-02T11:58:45.208Z,48.64
2022-10-02T12:01:39.832Z,48.63
2022-10-02T12:04:32.161Z,48.65
2022-10-02T12:07:38.395Z,48.76
2022-10-02T12:10:27.608Z,48.69
2022-10-02T12:13:29.268Z,48.39
2022-10-02T12:16:14.551Z,48.95
2022-10-02T12:18:45.655Z,49.89
2022-10-02T12:21:37.152Z,50.33
2022-10-02T12:24:54.650Z,51.57
2022-10-02T12:27:53.883Z,52.05
2022-10-02T12:30:38.842Z,52.10
2022-10-02T12:33:50.706Z,51.81
2022-10-02T12:36:51.061Z,52.06
2022-10-02T12:40:00.908Z,51.91
2022-10-02T12:43:07.957Z,51.31
2022-10-02T12:46:14.852Z,50.55
2022-10-02T12:49:05.348Z,50.72
2022-10-02T12:51:40.634Z,49.34
2022-10-02T12:54:53.678Z,47.76
2022-10-02T12:57:55.402Z,46.00
2022-10-02T13:01:01.104Z,44.15
2022-10-02T13:03:52.759Z,44.04
2022-10-02T13:06:47.525Z,43.25
2022-10-02T13:09:52.839Z,42.67
2022-10-02T13:13:19.913Z,43.27
2022-10-02T13:16:13.769Z,42.96
2022-10-02T13:19:10.544Z,42.28
2022-10-02T13:22:34.425Z,41.50
2022-10-02T13:25:23.903Z,40.83
2022-10-02T13:31:29.149Z,40.37
2022-10-02T13:34:09.457Z,41.20
2022-10-02T13:36:56.927Z,42.95
2022-10-02T13:39:43.206Z,43.56
2022-10-02T13:43:06.516Z,43.41
2022-10-02T13:46:30.530Z,42.28
2022-10-02T13:49:14.954Z,42.74
2022-10-02T13:51:55.707Z,44.09
2022-10-02T13:54:34.640Z,45.32
2022-10-02T13:57:13.964Z,47.38
2022-10-02T14:00:01.006Z,49.02
2022-10-02T14:02:47.538Z,49.52
2022-10-02T14:05:43.326Z,51.06
2022-10-02T14:08:47.971Z,52.28
2022-10-02T14:11:43.448Z,54.22
2022-10-02T14:14:23.206Z,55.12
2022-10-02T14:17:07.199Z,55.29
2022-10-02T14:19:57.473Z,56.84
2022-10-02T14:22:42.414Z,57.10
2022-10-02T14:25:34.179Z,57.38
2022-10-02T14:28:17.581Z,55.67
2022-10-02T14:31:29.825Z,55.39
2022-10-02T14:34:26.360Z,56.03
2022-10-02T14:37:31.799Z,57.22
2022-10-02T14:40:02.172Z,57.65
2022-10-02T14:42:40.632Z,58.68
2022-10-02T14:46:14.173Z,59.47
2022-10-02T14:48:56.131Z,60.98
2022-10-02T14:51:58.905Z,62.74
2022-10-02T14:54:33.270Z,62.58
2022-10-02T14:57:22.385Z,64.02
2022-10-02T14:59:58.680Z,63.90
2022-10-02T15:02:46.628Z,61.26
2022-10-02T15:05:38.896Z,56.98
2022-10-02T15:08:15.907Z,52.65
2022-10-02T15:10:45.209Z,49.08
2022-10-02T15:13:49.515Z,48.37
2022-10-02T15:16:46.328Z,45.36
2022-10-02T15:19:18.671Z,42.33
2022-10-02T15:22:02.088Z,41.72
2022-10-02T15:24:48.926Z,41.58
2022-10-02T15:27:49.750Z,42.18
2022-10-02T15:30:20.704Z,42.82
2022-10-02T15:33:23.499Z,43.65
2022-10-02T15:36:04.873Z,44.55
2022-10-02T15:38:52.098Z,45.62
2022-10-02T15:41:51.534Z,47.03
2022-10-02T15:44:37.608Z,48.28
2022-10-02T15:47:27.519Z,49.45
2022-10-02T15:50:08.844Z,50.35
2022-10-02T15:52:36.994Z,51.20
2022-10-02T15:55:25.343Z,52.05
2022-10-02T15:58:29.670Z,52.77
2022-10-02T16:01:25.858Z,53.86
2022-10-02T16:04:35.083Z,54.68
2022-10-02T16:07:36.655Z,55.82
2022-10-02T16:10:14.990Z,56.28
2022-10-02T16:12:42.854Z,56.67
2022-10-02T16:15:24.356Z,57.64
2022-10-02T16:18:24.848Z,58.15
2022-10-02T16:20:55.656Z,58.55
2022-10-02T16:23:30.630Z,59.07
2022-10-02T16:26:16.751Z,59.86
2022-10-02T16:28:57.754Z,60.66
2022-10-02T16:31:45.529Z,60.94
2022-10-02T16:34:37.798Z,61.30
2022-10-02T16:37:26.569Z,62.23
2022-10-02T16:40:18.811Z,62.53
2022-10-02T16:43:05.622Z,63.06
2022-10-02T16:45:43.165Z,63.24
2022-10-02T16:48:24.554Z,63.46
2022-10-02T16:51:04.795Z,63.75
2022-10-02T16:53:42.066Z,63.81
2022-10-02T16:56:25.333Z,64.25
2022-10-02T16:59:17.966Z,65.49
2022-10-02T17:02:31.152Z,65.68
2022-10-02T17:05:17.542Z,65.87
2022-10-02T17:08:05.486Z,66.20
2022-10-02T17:10:42.591Z,66.29
2022-10-02T17:13:33.533Z,66.49
2022-10-02T17:16:21.792Z,66.68
2022-10-02T17:19:37.037Z,67.06
2022-10-02T17:22:26.969Z,67.01
2022-10-02T17:25:18.598Z,67.21
2022-10-02T17:27:55.958Z,67.07
2022-10-02T17:30:31.581Z,67.22
2022-10-02T17:33:13.292Z,67.09
2022-10-02T17:35:58.121Z,67.08
2022-10-02T17:38:46.453Z,67.16
2022-10-02T17:41:43.757Z,66.82
2022-10-02T17:44:12.039Z,67.08
2022-10-02T17:47:12.248Z,66.88
2022-10-02T17:49:58.122Z,66.76
2022-10-02T17:53:37.099Z,66.83
2022-10-02T17:56:31.186Z,66.57
2022-10-02T17:59:01.920Z,66.56
2022-10-02T18:01:55.069Z,66.62
2022-10-02T18:05:19.271Z,66.85
2022-10-02T18:08:11.044Z,67.23
2022-10-02T18:10:58.409Z,67.70
2022-10-02T18:14:02.082Z,67.79
2022-10-02T18:17:04.957Z,67.97
2022-10-02T18:19:38.997Z,68.25
2022-10-02T18:22:31.655Z,68.36
2022-10-02T18:25:25.048Z,68.36
2022-10-02T18:28:01.154Z,68.69
2022-10-02T18:30:51.897Z,68.86
2022-10-02T18:33:28.981Z,68.97
2022-10-02T18:36:15.369Z,69.08
2022-10-02T18:38:54.499Z,69.05
2022-10-02T18:41:56.039Z,69.28
2022-10-02T18:44:59.044Z,69.42
2022-10-02T18:47:43.213Z,69.60
2022-10-02T18:50:58.531Z,70.14
2022-10-02T18:54:16.210Z,70.73
2022-10-02T18:57:08.141Z,71.07
2022-10-02T18:59:38.637Z,71.10
2022-10-02T19:02:26.729Z,71.13
2022-10-02T19:05:24.653Z,71.27
2022-10-02T19:08:04.426Z,71.39
2022-10-02T19:10:43.446Z,71.58
2022-10-02T19:13:29.172Z,71.62
2022-10-02T19:16:26.263Z,71.89
2022-10-02T19:22:23.998Z,71.94
2022-10-02T19:25:28.823Z,71.91
2022-10-02T19:28:00.129Z,72.05
2022-10-02T19:30:31.760Z,71.98
2022-10-02T19:33:17.307Z,72.14
2022-10-02T19:35:45.227Z,71.97
2022-10-02T19:41:02.835Z,71.98
2022-10-02T19:43:33.781Z,71.97
2022-10-02T19:46:06.027Z,71.77
2022-10-02T19:48:34.201Z,72.03
2022-10-02T19:51:09.629Z,72.06
2022-10-02T19:57:23.942Z,72.18
2022-10-02T19:59:54.103Z,72.23
2022-10-02T20:02:35.900Z,72.44
2022-10-02T20:05:11.181Z,72.43
2022-10-02T20:07:39.731Z,72.14
2022-10-02T20:10:23.428Z,72.05
2022-10-02T20:13:17.161Z,72.03
2022-10-02T20:16:14.950Z,72.05
2022-10-02T20:18:50.504Z,71.94
2022-10-02T20:21:26.977Z,71.83
2022-10-02T20:23:57.439Z,71.90
2022-10-02T20:26:29.200Z,71.92
2022-10-02T20:29:03.853Z,72.06
2022-10-02T20:32:11.235Z,71.85
2022-10-02T20:34:53.949Z,72.09
2022-10-02T20:37:26.616Z,72.18
2022-10-02T20:40:02.990Z,72.29
2022-10-02T20:42:39.012Z,72.15
2022-10-02T20:45:19.192Z,72.06
2022-10-02T20:48:13.673Z,72.06
2022-10-02T20:50:58.158Z,72.25
2022-10-02T20:53:50.964Z,72.10
2022-10-02T20:56:35.947Z,71.89
2022-10-02T20:59:15.760Z,72.19
2022-10-02T21:07:17.999Z,71.98
2022-10-02T21:10:03.780Z,71.99
2022-10-02T21:12:46.956Z,72.00
2022-10-02T21:15:30.080Z,72.03
2022-10-02T21:18:17.666Z,72.12
2022-10-02T21:21:00.701Z,72.23
2022-10-02T21:23:51.173Z,72.44
2022-10-02T21:26:50.733Z,72.53
2022-10-02T21:29:35.963Z,72.64
2022-10-02T21:32:17.053Z,72.76
2022-10-02T21:35:31.977Z,72.74
2022-10-02T21:38:27.869Z,73.22
2022-10-02T21:44:45.738Z,73.21
2022-10-02T21:47:40.123Z,73.58
2022-10-02T21:50:13.056Z,73.58
2022-10-02T21:52:43.915Z,73.58
2022-10-02T21:55:49.580Z,73.63
2022-10-02T21:58:32.880Z,73.72
2022-10-02T22:01:13.613Z,73.78
2022-10-02T22:03:51.989Z,73.88
2022-10-02T22:06:30.619Z,74.11
2022-10-02T22:09:12.125Z,74.31
2022-10-02T22:11:54.054Z,74.31
2022-10-02T22:14:35.142Z,74.58
2022-10-02T22:17:11.443Z,74.76
2022-10-02T22:19:42.461Z,74.76
2022-10-02T22:22:15.736Z,74.74
2022-10-02T22:24:52.329Z,74.65
2022-10-02T22:27:57.878Z,74.62
2022-10-02T22:30:26.275Z,74.40
2022-10-02T22:33:11.814Z,74.38
2022-10-02T22:47:30.414Z,74.52
2022-10-02T22:50:01.478Z,74.49
2022-10-02T22:52:42.622Z,74.58
2022-10-02T22:55:29.232Z,74.38
2022-10-02T22:57:59.827Z,74.41
2022-10-02T23:02:09.695Z,74.58
2022-10-02T23:04:38.121Z,74.60
2022-10-02T23:07:45.507Z,74.50
2022-10-02T23:10:16.376Z,74.52
2022-10-02T23:13:00.900Z,74.35
2022-10-02T23:15:50.615Z,74.47
2022-10-02T23:18:29.210Z,74.13
2022-10-02T23:21:22.379Z,74.06
2022-10-02T23:24:07.987Z,74.05
2022-10-02T23:26:49.654Z,74.27
2022-10-02T23:29:44.918Z,74.36
2022-10-02T23:32:35.434Z,74.22
2022-10-02T23:35:12.172Z,74.18
2022-10-02T23:37:58.540Z,74.16
2022-10-02T23:40:51.601Z,74.20
2022-10-02T23:43:30.097Z,74.22
2022-10-02T23:46:06.607Z,74.40
2022-10-02T23:48:35.288Z,74.24
2022-10-02T23:51:18.893Z,74.22
2022-10-02T23:54:32.123Z,74.11
2022-10-02T23:57:26.153Z,74.09
